sensor_id;sensor_type;location;lat;lon;timestamp;P1;durP1;ratioP1;P2;durP2;ratioP2
26040;SDS011;13816;53.628;9.950;2022-08-19T00:01:20;22.50;;;17.13;;
26040;SDS011;13816;53.628;9.950;2022-08-19T00:04:37;25.17;;;17.83;;
26040;SDS011;13816;53.628;9.950;2022-08-19T00:08:20;27.83;;;18.03;;
26040;SDS011;13816;53.628;9.950;2022-08-19T00:11:04;25.43;;;19.50;;
26040;SDS011;13816;53.628;9.950;2022-08-19T00:13:44;25.20;;;19.40;;
26040;SDS011;13816;53.628;9.950;2022-08-19T00:16:42;30.77;;;19.63;;
26040;SDS011;13816;53.628;9.950;2022-08-19T00:23:01;32.53;;;19.77;;
26040;SDS011;13816;53.628;9.950;2022-08-19T00:29:34;32.17;;;19.77;;
26040;SDS011;13816;53.628;9.950;2022-08-19T00:32:51;28.37;;;19.77;;
26040;SDS011;13816;53.628;9.950;2022-08-19T00:55:44;28.03;;;20.10;;
26040;SDS011;13816;53.628;9.950;2022-08-19T01:02:09;28.20;;;20.43;;
26040;SDS011;13816;53.628;9.950;2022-08-19T01:04:47;27.40;;;19.83;;
26040;SDS011;13816;53.628;9.950;2022-08-19T01:10:14;29.40;;;19.33;;
26040;SDS011;13816;53.628;9.950;2022-08-19T01:12:48;28.27;;;19.00;;
26040;SDS011;13816;53.628;9.950;2022-08-19T01:15:27;28.80;;;20.07;;
26040;SDS011;13816;53.628;9.950;2022-08-19T01:18:21;25.47;;;19.20;;
26040;SDS011;13816;53.628;9.950;2022-08-19T01:21:40;34.53;;;18.20;;
26040;SDS011;13816;53.628;9.950;2022-08-19T01:24:08;26.43;;;18.53;;
26040;SDS011;13816;53.628;9.950;2022-08-19T01:26:39;29.87;;;20.20;;
26040;SDS011;13816;53.628;9.950;2022-08-19T01:29:16;33.20;;;21.17;;
26040;SDS011;13816;53.628;9.950;2022-08-19T01:31:43;36.03;;;22.80;;
26040;SDS011;13816;53.628;9.950;2022-08-19T01:34:30;29.20;;;20.53;;
26040;SDS011;13816;53.628;9.950;2022-08-19T01:37:27;31.03;;;22.80;;
26040;SDS011;13816;53.628;9.950;2022-08-19T01:40:00;33.73;;;22.90;;
26040;SDS011;13816;53.628;9.950;2022-08-19T01:43:04;33.67;;;23.17;;
26040;SDS011;13816;53.628;9.950;2022-08-19T01:46:22;36.10;;;22.43;;
26040;SDS011;13816;53.628;9.950;2022-08-19T01:49:10;41.03;;;24.40;;
26040;SDS011;13816;53.628;9.950;2022-08-19T01:51:37;32.70;;;22.20;;
26040;SDS011;13816;53.628;9.950;2022-08-19T01:55:03;38.70;;;25.37;;
26040;SDS011;13816;53.628;9.950;2022-08-19T01:57:58;36.33;;;22.30;;
26040;SDS011;13816;53.628;9.950;2022-08-19T02:00:27;35.90;;;22.73;;
26040;SDS011;13816;53.628;9.950;2022-08-19T02:03:39;38.13;;;23.20;;
26040;SDS011;13816;53.628;9.950;2022-08-19T02:09:26;41.70;;;25.47;;
26040;SDS011;13816;53.628;9.950;2022-08-19T02:12:39;33.70;;;21.90;;
26040;SDS011;13816;53.628;9.950;2022-08-19T02:15:26;39.13;;;25.33;;
26040;SDS011;13816;53.628;9.950;2022-08-19T02:17:55;41.20;;;24.93;;
26040;SDS011;13816;53.628;9.950;2022-08-19T02:20:22;36.93;;;23.80;;
26040;SDS011;13816;53.628;9.950;2022-08-19T02:23:09;41.63;;;22.60;;
26040;SDS011;13816;53.628;9.950;2022-08-19T02:26:01;48.30;;;23.90;;
26040;SDS011;13816;53.628;9.950;2022-08-19T02:28:28;48.30;;;25.93;;
26040;SDS011;13816;53.628;9.950;2022-08-19T02:30:55;42.37;;;25.37;;
26040;SDS011;13816;53.628;9.950;2022-08-19T02:39:09;59.17;;;30.40;;
26040;SDS011;13816;53.628;9.950;2022-08-19T02:42:01;49.57;;;29.20;;
26040;SDS011;13816;53.628;9.950;2022-08-19T02:44:28;55.87;;;28.80;;
26040;SDS011;13816;53.628;9.950;2022-08-19T02:48:03;49.27;;;27.03;;
26040;SDS011;13816;53.628;9.950;2022-08-19T02:50:52;63.37;;;28.40;;
26040;SDS011;13816;53.628;9.950;2022-08-19T02:53:26;56.27;;;28.80;;
26040;SDS011;13816;53.628;9.950;2022-08-19T02:56:42;53.67;;;26.37;;
26040;SDS011;13816;53.628;9.950;2022-08-19T03:02:24;63.13;;;29.50;;
26040;SDS011;13816;53.628;9.950;2022-08-19T03:04:54;57.30;;;28.90;;
26040;SDS011;13816;53.628;9.950;2022-08-19T03:07:23;54.37;;;29.53;;
26040;SDS011;13816;53.628;9.950;2022-08-19T03:10:13;56.60;;;25.80;;
26040;SDS011;13816;53.628;9.950;2022-08-19T03:12:39;48.60;;;26.60;;
26040;SDS011;13816;53.628;9.950;2022-08-19T03:15:34;55.57;;;28.17;;
26040;SDS011;13816;53.628;9.950;2022-08-19T03:18:58;47.47;;;26.40;;
26040;SDS011;13816;53.628;9.950;2022-08-19T03:21:55;51.03;;;26.80;;
26040;SDS011;13816;53.628;9.950;2022-08-19T03:24:28;52.53;;;25.43;;
26040;SDS011;13816;53.628;9.950;2022-08-19T03:27:29;57.30;;;26.80;;
26040;SDS011;13816;53.628;9.950;2022-08-19T03:29:56;49.80;;;24.53;;
26040;SDS011;13816;53.628;9.950;2022-08-19T03:32:25;57.37;;;26.63;;
26040;SDS011;13816;53.628;9.950;2022-08-19T03:38:26;56.50;;;25.77;;
26040;SDS011;13816;53.628;9.950;2022-08-19T03:41:35;51.83;;;26.97;;
26040;SDS011;13816;53.628;9.950;2022-08-19T03:44:34;46.33;;;25.43;;
26040;SDS011;13816;53.628;9.950;2022-08-19T03:47:53;45.63;;;24.37;;
26040;SDS011;13816;53.628;9.950;2022-08-19T03:55:02;48.97;;;23.13;;
26040;SDS011;13816;53.628;9.950;2022-08-19T03:58:24;39.90;;;21.43;;
26040;SDS011;13816;53.628;9.950;2022-08-19T04:01:27;44.90;;;23.40;;
26040;SDS011;13816;53.628;9.950;2022-08-19T04:04:39;39.73;;;21.77;;
26040;SDS011;13816;53.628;9.950;2022-08-19T04:07:49;53.33;;;25.27;;
26040;SDS011;13816;53.628;9.950;2022-08-19T04:14:02;52.43;;;26.23;;
26040;SDS011;13816;53.628;9.950;2022-08-19T04:16:39;48.90;;;27.40;;
26040;SDS011;13816;53.628;9.950;2022-08-19T04:19:34;48.67;;;24.53;;
26040;SDS011;13816;53.628;9.950;2022-08-19T04:22:12;52.67;;;26.00;;
26040;SDS011;13816;53.628;9.950;2022-08-19T04:29:02;46.60;;;25.63;;
26040;SDS011;13816;53.628;9.950;2022-08-19T04:32:13;52.27;;;25.20;;
26040;SDS011;13816;53.628;9.950;2022-08-19T04:35:08;51.80;;;25.57;;
26040;SDS011;13816;53.628;9.950;2022-08-19T04:38:10;51.53;;;27.40;;
26040;SDS011;13816;53.628;9.950;2022-08-19T04:40:57;71.90;;;27.53;;
26040;SDS011;13816;53.628;9.950;2022-08-19T04:43:54;64.10;;;30.63;;
26040;SDS011;13816;53.628;9.950;2022-08-19T04:46:26;69.07;;;35.27;;
26040;SDS011;13816;53.628;9.950;2022-08-19T04:49:13;70.93;;;34.77;;
26040;SDS011;13816;53.628;9.950;2022-08-19T04:52:10;64.40;;;34.97;;
26040;SDS011;13816;53.628;9.950;2022-08-19T05:02:58;75.40;;;37.37;;
26040;SDS011;13816;53.628;9.950;2022-08-19T05:12:57;80.73;;;40.47;;
26040;SDS011;13816;53.628;9.950;2022-08-19T05:19:41;84.43;;;38.47;;
26040;SDS011;13816;53.628;9.950;2022-08-19T05:27:02;69.00;;;36.33;;
26040;SDS011;13816;53.628;9.950;2022-08-19T05:30:44;95.23;;;41.27;;
26040;SDS011;13816;53.628;9.950;2022-08-19T05:34:00;70.13;;;36.87;;
26040;SDS011;13816;53.628;9.950;2022-08-19T05:36:28;84.97;;;39.33;;
26040;SDS011;13816;53.628;9.950;2022-08-19T05:38:54;65.13;;;36.23;;
26040;SDS011;13816;53.628;9.950;2022-08-19T05:41:25;64.37;;;36.80;;
26040;SDS011;13816;53.628;9.950;2022-08-19T05:43:57;70.13;;;40.13;;
26040;SDS011;13816;53.628;9.950;2022-08-19T05:46:28;59.93;;;38.97;;
26040;SDS011;13816;53.628;9.950;2022-08-19T05:52:25;61.50;;;36.30;;
26040;SDS011;13816;53.628;9.950;2022-08-19T05:54:56;61.57;;;38.83;;
26040;SDS011;13816;53.628;9.950;2022-08-19T05:57:25;66.83;;;39.90;;
26040;SDS011;13816;53.628;9.950;2022-08-19T06:02:56;68.00;;;38.63;;
26040;SDS011;13816;53.628;9.950;2022-08-19T06:05:27;71.63;;;39.50;;
26040;SDS011;13816;53.628;9.950;2022-08-19T06:08:06;62.03;;;36.40;;
26040;SDS011;13816;53.628;9.950;2022-08-19T06:10:35;65.23;;;37.87;;
26040;SDS011;13816;53.628;9.950;2022-08-19T06:13:15;66.73;;;38.90;;
26040;SDS011;13816;53.628;9.950;2022-08-19T06:15:42;53.57;;;35.17;;
26040;SDS011;13816;53.628;9.950;2022-08-19T06:18:15;76.63;;;40.30;;
26040;SDS011;13816;53.628;9.950;2022-08-19T06:20:42;65.07;;;36.70;;
26040;SDS011;13816;53.628;9.950;2022-08-19T06:23:08;63.40;;;38.00;;
26040;SDS011;13816;53.628;9.950;2022-08-19T06:25:38;63.87;;;37.07;;
26040;SDS011;13816;53.628;9.950;2022-08-19T06:28:11;77.10;;;38.67;;
26040;SDS011;13816;53.628;9.950;2022-08-19T06:30:40;66.23;;;37.27;;
26040;SDS011;13816;53.628;9.950;2022-08-19T06:33:09;64.37;;;38.23;;
26040;SDS011;13816;53.628;9.950;2022-08-19T06:35:39;62.60;;;37.00;;
26040;SDS011;13816;53.628;9.950;2022-08-19T06:38:06;83.07;;;39.17;;
26040;SDS011;13816;53.628;9.950;2022-08-19T06:40:32;73.20;;;39.27;;
26040;SDS011;13816;53.628;9.950;2022-08-19T06:42:58;65.03;;;37.30;;
26040;SDS011;13816;53.628;9.950;2022-08-19T06:45:27;71.73;;;38.97;;
26040;SDS011;13816;53.628;9.950;2022-08-19T06:47:54;72.43;;;37.80;;
26040;SDS011;13816;53.628;9.950;2022-08-19T06:57:18;61.77;;;35.60;;
26040;SDS011;13816;53.628;9.950;2022-08-19T06:59:55;58.60;;;35.30;;
26040;SDS011;13816;53.628;9.950;2022-08-19T07:02:21;57.63;;;34.70;;
26040;SDS011;13816;53.628;9.950;2022-08-19T07:04:52;57.27;;;35.57;;
26040;SDS011;13816;53.628;9.950;2022-08-19T07:07:18;60.00;;;32.50;;
26040;SDS011;13816;53.628;9.950;2022-08-19T07:09:50;57.90;;;33.10;;
26040;SDS011;13816;53.628;9.950;2022-08-19T07:12:22;56.90;;;33.40;;
26040;SDS011;13816;53.628;9.950;2022-08-19T07:14:49;54.23;;;35.50;;
26040;SDS011;13816;53.628;9.950;2022-08-19T07:17:15;54.40;;;33.60;;
26040;SDS011;13816;53.628;9.950;2022-08-19T07:19:44;58.37;;;34.63;;
26040;SDS011;13816;53.628;9.950;2022-08-19T07:22:10;54.07;;;33.63;;
26040;SDS011;13816;53.628;9.950;2022-08-19T07:24:40;48.43;;;32.17;;
26040;SDS011;13816;53.628;9.950;2022-08-19T07:27:06;52.77;;;30.70;;
26040;SDS011;13816;53.628;9.950;2022-08-19T07:29:33;48.67;;;29.87;;
26040;SDS011;13816;53.628;9.950;2022-08-19T07:32:00;44.73;;;28.57;;
26040;SDS011;13816;53.628;9.950;2022-08-19T07:34:27;44.70;;;29.20;;
26040;SDS011;13816;53.628;9.950;2022-08-19T07:36:54;46.77;;;29.73;;
26040;SDS011;13816;53.628;9.950;2022-08-19T07:39:26;42.93;;;27.30;;
26040;SDS011;13816;53.628;9.950;2022-08-19T07:45:49;35.87;;;25.60;;
26040;SDS011;13816;53.628;9.950;2022-08-19T07:48:55;41.67;;;26.33;;
26040;SDS011;13816;53.628;9.950;2022-08-19T07:51:26;38.70;;;26.00;;
26040;SDS011;13816;53.628;9.950;2022-08-19T07:54:37;41.10;;;28.33;;
26040;SDS011;13816;53.628;9.950;2022-08-19T07:57:58;47.03;;;29.90;;
26040;SDS011;13816;53.628;9.950;2022-08-19T08:00:53;42.27;;;27.47;;
26040;SDS011;13816;53.628;9.950;2022-08-19T08:07:03;42.97;;;27.00;;
26040;SDS011;13816;53.628;9.950;2022-08-19T08:14:02;42.77;;;27.60;;
26040;SDS011;13816;53.628;9.950;2022-08-19T08:31:18;45.00;;;27.70;;
26040;SDS011;13816;53.628;9.950;2022-08-19T08:40:49;37.50;;;25.20;;
26040;SDS011;13816;53.628;9.950;2022-08-19T08:50:02;20.87;;;16.97;;
26040;SDS011;13816;53.628;9.950;2022-08-19T08:57:19;22.37;;;15.57;;
26040;SDS011;13816;53.628;9.950;2022-08-19T09:06:42;23.40;;;15.70;;
26040;SDS011;13816;53.628;9.950;2022-08-19T09:16:35;22.37;;;15.23;;
26040;SDS011;13816;53.628;9.950;2022-08-19T09:26:44;24.07;;;13.73;;
26040;SDS011;13816;53.628;9.950;2022-08-19T09:29:43;16.00;;;11.90;;
26040;SDS011;13816;53.628;9.950;2022-08-19T09:32:38;22.80;;;15.90;;
26040;SDS011;13816;53.628;9.950;2022-08-19T09:35:33;26.97;;;13.53;;
26040;SDS011;13816;53.628;9.950;2022-08-19T09:38:46;30.98;;;15.13;;
26040;SDS011;13816;53.628;9.950;2022-08-19T09:41:42;22.83;;;15.20;;
26040;SDS011;13816;53.628;9.950;2022-08-19T09:44:35;33.57;;;15.90;;
26040;SDS011;13816;53.628;9.950;2022-08-19T09:47:08;21.47;;;14.47;;
26040;SDS011;13816;53.628;9.950;2022-08-19T09:49:34;21.30;;;13.00;;
26040;SDS011;13816;53.628;9.950;2022-08-19T09:52:01;21.93;;;13.13;;
26040;SDS011;13816;53.628;9.950;2022-08-19T09:54:27;20.23;;;14.27;;
26040;SDS011;13816;53.628;9.950;2022-08-19T10:00:28;29.20;;;16.23;;
26040;SDS011;13816;53.628;9.950;2022-08-19T10:07:03;25.83;;;15.47;;
26040;SDS011;13816;53.628;9.950;2022-08-19T10:13:03;20.17;;;14.23;;
26040;SDS011;13816;53.628;9.950;2022-08-19T10:15:40;20.10;;;13.33;;
26040;SDS011;13816;53.628;9.950;2022-08-19T10:18:40;24.10;;;17.30;;
26040;SDS011;13816;53.628;9.950;2022-08-19T10:28:14;33.00;;;19.93;;
26040;SDS011;13816;53.628;9.950;2022-08-19T10:35:05;32.67;;;19.70;;
26040;SDS011;13816;53.628;9.950;2022-08-19T10:38:44;27.23;;;18.20;;
26040;SDS011;13816;53.628;9.950;2022-08-19T10:42:18;27.77;;;19.90;;
26040;SDS011;13816;53.628;9.950;2022-08-19T10:44:56;28.27;;;19.30;;
26040;SDS011;13816;53.628;9.950;2022-08-19T10:57:05;29.60;;;19.23;;
26040;SDS011;13816;53.628;9.950;2022-08-19T10:59:47;25.90;;;17.80;;
26040;SDS011;13816;53.628;9.950;2022-08-19T11:02:18;33.47;;;19.70;;
26040;SDS011;13816;53.628;9.950;2022-08-19T11:19:36;25.90;;;15.20;;
26040;SDS011;13816;53.628;9.950;2022-08-19T11:22:02;21.20;;;16.03;;
26040;SDS011;13816;53.628;9.950;2022-08-19T11:24:29;22.93;;;15.93;;
26040;SDS011;13816;53.628;9.950;2022-08-19T11:27:08;23.33;;;14.93;;
26040;SDS011;13816;53.628;9.950;2022-08-19T11:29:38;20.07;;;13.70;;
26040;SDS011;13816;53.628;9.950;2022-08-19T11:32:09;19.37;;;14.20;;
26040;SDS011;13816;53.628;9.950;2022-08-19T11:34:35;19.27;;;15.10;;
26040;SDS011;13816;53.628;9.950;2022-08-19T11:37:04;20.77;;;13.60;;
26040;SDS011;13816;53.628;9.950;2022-08-19T11:39:41;23.87;;;15.33;;
26040;SDS011;13816;53.628;9.950;2022-08-19T11:42:09;19.73;;;12.93;;
26040;SDS011;13816;53.628;9.950;2022-08-19T11:44:54;21.47;;;13.67;;
26040;SDS011;13816;53.628;9.950;2022-08-19T11:47:20;20.60;;;13.63;;
26040;SDS011;13816;53.628;9.950;2022-08-19T11:49:47;21.30;;;14.20;;
26040;SDS011;13816;53.628;9.950;2022-08-19T11:52:13;16.97;;;12.53;;
26040;SDS011;13816;53.628;9.950;2022-08-19T11:54:40;18.00;;;12.17;;
26040;SDS011;13816;53.628;9.950;2022-08-19T11:57:06;20.63;;;13.00;;
26040;SDS011;13816;53.628;9.950;2022-08-19T11:59:32;22.27;;;13.87;;
26040;SDS011;13816;53.628;9.950;2022-08-19T12:01:58;15.20;;;12.30;;
26040;SDS011;13816;53.628;9.950;2022-08-19T12:04:24;16.83;;;13.20;;
26040;SDS011;13816;53.628;9.950;2022-08-19T12:06:50;17.73;;;13.70;;
26040;SDS011;13816;53.628;9.950;2022-08-19T12:09:17;22.00;;;14.20;;
26040;SDS011;13816;53.628;9.950;2022-08-19T12:11:43;20.77;;;13.87;;
26040;SDS011;13816;53.628;9.950;2022-08-19T12:14:11;19.20;;;13.90;;
26040;SDS011;13816;53.628;9.950;2022-08-19T12:16:39;18.63;;;13.13;;
26040;SDS011;13816;53.628;9.950;2022-08-19T12:19:06;16.67;;;11.80;;
26040;SDS011;13816;53.628;9.950;2022-08-19T12:21:34;17.60;;;12.40;;
26040;SDS011;13816;53.628;9.950;2022-08-19T12:24:01;23.53;;;12.30;;
26040;SDS011;13816;53.628;9.950;2022-08-19T12:26:28;18.53;;;11.70;;
26040;SDS011;13816;53.628;9.950;2022-08-19T12:28:56;17.50;;;12.17;;
26040;SDS011;13816;53.628;9.950;2022-08-19T12:31:24;14.00;;;12.50;;
26040;SDS011;13816;53.628;9.950;2022-08-19T12:33:50;14.13;;;12.23;;
26040;SDS011;13816;53.628;9.950;2022-08-19T12:36:17;14.13;;;11.27;;
26040;SDS011;13816;53.628;9.950;2022-08-19T12:38:44;17.30;;;10.17;;
26040;SDS011;13816;53.628;9.950;2022-08-19T12:43:48;14.20;;;10.27;;
26040;SDS011;13816;53.628;9.950;2022-08-19T12:46:17;10.93;;;8.13;;
26040;SDS011;13816;53.628;9.950;2022-08-19T12:48:43;11.57;;;10.40;;
26040;SDS011;13816;53.628;9.950;2022-08-19T12:51:15;21.80;;;11.03;;
26040;SDS011;13816;53.628;9.950;2022-08-19T12:53:41;17.93;;;10.10;;
26040;SDS011;13816;53.628;9.950;2022-08-19T12:56:08;11.90;;;10.60;;
26040;SDS011;13816;53.628;9.950;2022-08-19T12:58:35;15.03;;;11.33;;
26040;SDS011;13816;53.628;9.950;2022-08-19T13:01:09;15.83;;;11.20;;
26040;SDS011;13816;53.628;9.950;2022-08-19T13:03:35;11.73;;;10.53;;
26040;SDS011;13816;53.628;9.950;2022-08-19T13:06:02;15.23;;;10.50;;
26040;SDS011;13816;53.628;9.950;2022-08-19T13:08:28;15.60;;;10.70;;
26040;SDS011;13816;53.628;9.950;2022-08-19T13:10:54;14.47;;;11.97;;
26040;SDS011;13816;53.628;9.950;2022-08-19T13:13:20;15.13;;;11.87;;
26040;SDS011;13816;53.628;9.950;2022-08-19T13:15:47;14.80;;;11.00;;
26040;SDS011;13816;53.628;9.950;2022-08-19T13:18:13;11.87;;;10.63;;
26040;SDS011;13816;53.628;9.950;2022-08-19T13:20:39;18.23;;;12.20;;
26040;SDS011;13816;53.628;9.950;2022-08-19T13:23:12;15.17;;;10.40;;
26040;SDS011;13816;53.628;9.950;2022-08-19T13:25:38;13.90;;;10.50;;
26040;SDS011;13816;53.628;9.950;2022-08-19T13:28:05;17.20;;;11.40;;
26040;SDS011;13816;53.628;9.950;2022-08-19T13:30:31;14.37;;;11.80;;
26040;SDS011;13816;53.628;9.950;2022-08-19T13:33:17;11.40;;;10.30;;
26040;SDS011;13816;53.628;9.950;2022-08-19T13:35:45;15.57;;;10.57;;
26040;SDS011;13816;53.628;9.950;2022-08-19T13:38:13;12.50;;;10.40;;
26040;SDS011;13816;53.628;9.950;2022-08-19T13:40:39;14.07;;;10.27;;
26040;SDS011;13816;53.628;9.950;2022-08-19T13:43:06;13.23;;;10.20;;
26040;SDS011;13816;53.628;9.950;2022-08-19T13:45:33;16.50;;;10.67;;
26040;SDS011;13816;53.628;9.950;2022-08-19T13:47:59;12.13;;;9.83;;
26040;SDS011;13816;53.628;9.950;2022-08-19T13:50:27;13.43;;;10.90;;
26040;SDS011;13816;53.628;9.950;2022-08-19T13:52:54;11.83;;;10.73;;
26040;SDS011;13816;53.628;9.950;2022-08-19T13:55:21;11.30;;;9.57;;
26040;SDS011;13816;53.628;9.950;2022-08-19T13:57:51;12.20;;;11.00;;
26040;SDS011;13816;53.628;9.950;2022-08-19T14:00:18;11.60;;;10.50;;
26040;SDS011;13816;53.628;9.950;2022-08-19T14:02:45;12.47;;;10.87;;
26040;SDS011;13816;53.628;9.950;2022-08-19T14:05:12;11.20;;;9.97;;
26040;SDS011;13816;53.628;9.950;2022-08-19T14:07:39;15.70;;;13.00;;
26040;SDS011;13816;53.628;9.950;2022-08-19T14:10:06;13.73;;;12.07;;
26040;SDS011;13816;53.628;9.950;2022-08-19T14:12:33;16.67;;;13.00;;
26040;SDS011;13816;53.628;9.950;2022-08-19T14:14:59;14.83;;;13.20;;
26040;SDS011;13816;53.628;9.950;2022-08-19T14:17:25;14.50;;;12.90;;
26040;SDS011;13816;53.628;9.950;2022-08-19T14:19:56;15.53;;;13.00;;
26040;SDS011;13816;53.628;9.950;2022-08-19T14:22:23;15.40;;;13.50;;
26040;SDS011;13816;53.628;9.950;2022-08-19T14:24:49;14.90;;;12.47;;
26040;SDS011;13816;53.628;9.950;2022-08-19T14:27:15;23.60;;;14.10;;
26040;SDS011;13816;53.628;9.950;2022-08-19T14:29:41;14.20;;;12.70;;
26040;SDS011;13816;53.628;9.950;2022-08-19T14:32:07;15.40;;;13.57;;
26040;SDS011;13816;53.628;9.950;2022-08-19T14:34:39;15.87;;;13.80;;
26040;SDS011;13816;53.628;9.950;2022-08-19T14:37:19;15.93;;;13.30;;
26040;SDS011;13816;53.628;9.950;2022-08-19T14:39:47;14.83;;;13.20;;
26040;SDS011;13816;53.628;9.950;2022-08-19T14:42:13;14.70;;;12.13;;
26040;SDS011;13816;53.628;9.950;2022-08-19T14:44:40;14.30;;;12.90;;
26040;SDS011;13816;53.628;9.950;2022-08-19T14:47:06;15.57;;;13.13;;
26040;SDS011;13816;53.628;9.950;2022-08-19T14:49:33;18.00;;;14.37;;
26040;SDS011;13816;53.628;9.950;2022-08-19T14:51:59;19.70;;;13.60;;
26040;SDS011;13816;53.628;9.950;2022-08-19T14:54:25;15.57;;;13.20;;
26040;SDS011;13816;53.628;9.950;2022-08-19T14:56:51;19.77;;;13.40;;
26040;SDS011;13816;53.628;9.950;2022-08-19T14:59:17;14.70;;;12.83;;
26040;SDS011;13816;53.628;9.950;2022-08-19T15:01:43;15.87;;;13.93;;
26040;SDS011;13816;53.628;9.950;2022-08-19T15:04:09;13.67;;;12.23;;
26040;SDS011;13816;53.628;9.950;2022-08-19T15:06:36;13.37;;;11.73;;
26040;SDS011;13816;53.628;9.950;2022-08-19T15:09:02;17.83;;;11.97;;
26040;SDS011;13816;53.628;9.950;2022-08-19T15:11:28;12.53;;;11.10;;
26040;SDS011;13816;53.628;9.950;2022-08-19T15:16:26;12.23;;;10.57;;
26040;SDS011;13816;53.628;9.950;2022-08-19T15:18:53;12.00;;;10.83;;
26040;SDS011;13816;53.628;9.950;2022-08-19T15:21:20;13.47;;;9.97;;
26040;SDS011;13816;53.628;9.950;2022-08-19T15:23:54;12.13;;;9.87;;
26040;SDS011;13816;53.628;9.950;2022-08-19T15:26:22;11.10;;;10.00;;
26040;SDS011;13816;53.628;9.950;2022-08-19T15:28:49;12.60;;;10.40;;
26040;SDS011;13816;53.628;9.950;2022-08-19T15:31:18;12.20;;;10.23;;
26040;SDS011;13816;53.628;9.950;2022-08-19T15:33:44;11.30;;;9.70;;
26040;SDS011;13816;53.628;9.950;2022-08-19T15:36:12;11.30;;;9.70;;
26040;SDS011;13816;53.628;9.950;2022-08-19T15:38:38;10.67;;;9.67;;
26040;SDS011;13816;53.628;9.950;2022-08-19T15:41:13;12.53;;;9.00;;
26040;SDS011;13816;53.628;9.950;2022-08-19T15:43:51;11.70;;;9.90;;
26040;SDS011;13816;53.628;9.950;2022-08-19T15:46:18;13.00;;;10.00;;
26040;SDS011;13816;53.628;9.950;2022-08-19T15:48:46;11.00;;;9.90;;
26040;SDS011;13816;53.628;9.950;2022-08-19T15:51:14;12.47;;;9.90;;
26040;SDS011;13816;53.628;9.950;2022-08-19T15:53:40;15.93;;;10.70;;
26040;SDS011;13816;53.628;9.950;2022-08-19T15:56:07;10.50;;;9.50;;
26040;SDS011;13816;53.628;9.950;2022-08-19T15:58:33;11.07;;;9.60;;
26040;SDS011;13816;53.628;9.950;2022-08-19T16:01:21;11.60;;;9.23;;
26040;SDS011;13816;53.628;9.950;2022-08-19T16:03:54;13.37;;;9.30;;
26040;SDS011;13816;53.628;9.950;2022-08-19T16:06:39;10.70;;;8.83;;
26040;SDS011;13816;53.628;9.950;2022-08-19T16:09:10;11.07;;;9.50;;
26040;SDS011;13816;53.628;9.950;2022-08-19T16:11:37;11.93;;;9.20;;
26040;SDS011;13816;53.628;9.950;2022-08-19T16:14:03;19.17;;;10.50;;
26040;SDS011;13816;53.628;9.950;2022-08-19T16:16:33;21.63;;;10.07;;
26040;SDS011;13816;53.628;9.950;2022-08-19T16:19:01;17.60;;;9.20;;
26040;SDS011;13816;53.628;9.950;2022-08-19T16:21:28;9.23;;;8.27;;
26040;SDS011;13816;53.628;9.950;2022-08-19T16:24:01;11.83;;;9.00;;
26040;SDS011;13816;53.628;9.950;2022-08-19T16:26:28;10.23;;;9.13;;
26040;SDS011;13816;53.628;9.950;2022-08-19T16:28:56;9.90;;;8.90;;
26040;SDS011;13816;53.628;9.950;2022-08-19T16:31:22;9.67;;;7.70;;
26040;SDS011;13816;53.628;9.950;2022-08-19T16:33:49;10.73;;;9.27;;
26040;SDS011;13816;53.628;9.950;2022-08-19T16:36:15;13.97;;;8.30;;
26040;SDS011;13816;53.628;9.950;2022-08-19T16:38:42;8.20;;;7.40;;
26040;SDS011;13816;53.628;9.950;2022-08-19T16:41:13;8.27;;;7.17;;
26040;SDS011;13816;53.628;9.950;2022-08-19T16:43:40;8.90;;;8.10;;
26040;SDS011;13816;53.628;9.950;2022-08-19T16:46:06;11.00;;;8.37;;
26040;SDS011;13816;53.628;9.950;2022-08-19T16:51:07;10.60;;;8.63;;
26040;SDS011;13816;53.628;9.950;2022-08-19T16:53:35;8.80;;;7.90;;
26040;SDS011;13816;53.628;9.950;2022-08-19T16:56:02;11.77;;;8.07;;
26040;SDS011;13816;53.628;9.950;2022-08-19T16:58:29;9.33;;;8.33;;
26040;SDS011;13816;53.628;9.950;2022-08-19T17:00:58;9.93;;;8.97;;
26040;SDS011;13816;53.628;9.950;2022-08-19T17:03:24;9.77;;;8.77;;
26040;SDS011;13816;53.628;9.950;2022-08-19T17:05:52;10.67;;;8.47;;
26040;SDS011;13816;53.628;9.950;2022-08-19T17:08:19;10.83;;;9.70;;
26040;SDS011;13816;53.628;9.950;2022-08-19T17:10:46;12.27;;;9.73;;
26040;SDS011;13816;53.628;9.950;2022-08-19T17:13:12;12.07;;;9.20;;
26040;SDS011;13816;53.628;9.950;2022-08-19T17:15:41;9.83;;;8.83;;
26040;SDS011;13816;53.628;9.950;2022-08-19T17:18:08;16.03;;;10.20;;
26040;SDS011;13816;53.628;9.950;2022-08-19T17:20:35;11.10;;;10.00;;
26040;SDS011;13816;53.628;9.950;2022-08-19T17:23:02;17.70;;;9.97;;
26040;SDS011;13816;53.628;9.950;2022-08-19T17:25:38;12.50;;;10.20;;
26040;SDS011;13816;53.628;9.950;2022-08-19T17:28:08;13.23;;;9.63;;
26040;SDS011;13816;53.628;9.950;2022-08-19T17:30:35;13.00;;;9.60;;
26040;SDS011;13816;53.628;9.950;2022-08-19T17:33:02;11.30;;;9.67;;
26040;SDS011;13816;53.628;9.950;2022-08-19T17:35:28;10.17;;;8.97;;
26040;SDS011;13816;53.628;9.950;2022-08-19T17:38:05;14.77;;;9.33;;
26040;SDS011;13816;53.628;9.950;2022-08-19T17:40:32;14.07;;;9.30;;
26040;SDS011;13816;53.628;9.950;2022-08-19T17:42:59;11.60;;;9.80;;
26040;SDS011;13816;53.628;9.950;2022-08-19T17:45:25;10.70;;;9.30;;
26040;SDS011;13816;53.628;9.950;2022-08-19T17:47:53;10.47;;;8.70;;
26040;SDS011;13816;53.628;9.950;2022-08-19T17:50:20;11.00;;;9.03;;
26040;SDS011;13816;53.628;9.950;2022-08-19T17:52:46;11.90;;;9.23;;
26040;SDS011;13816;53.628;9.950;2022-08-19T17:55:13;10.33;;;9.23;;
26040;SDS011;13816;53.628;9.950;2022-08-19T17:57:40;12.53;;;9.50;;
26040;SDS011;13816;53.628;9.950;2022-08-19T18:00:07;12.83;;;9.60;;
26040;SDS011;13816;53.628;9.950;2022-08-19T18:02:43;12.80;;;10.93;;
26040;SDS011;13816;53.628;9.950;2022-08-19T18:05:09;11.80;;;10.57;;
26040;SDS011;13816;53.628;9.950;2022-08-19T18:07:37;12.70;;;10.20;;
26040;SDS011;13816;53.628;9.950;2022-08-19T18:10:03;14.63;;;10.13;;
26040;SDS011;13816;53.628;9.950;2022-08-19T18:12:29;16.63;;;11.50;;
26040;SDS011;13816;53.628;9.950;2022-08-19T18:14:56;11.80;;;10.70;;
26040;SDS011;13816;53.628;9.950;2022-08-19T18:17:22;19.50;;;12.27;;
26040;SDS011;13816;53.628;9.950;2022-08-19T18:19:50;12.40;;;10.67;;
26040;SDS011;13816;53.628;9.950;2022-08-19T18:22:49;12.33;;;10.93;;
26040;SDS011;13816;53.628;9.950;2022-08-19T18:25:10;15.00;;;11.90;;
26040;SDS011;13816;53.628;9.950;2022-08-19T18:27:37;15.53;;;10.97;;
26040;SDS011;13816;53.628;9.950;2022-08-19T18:30:04;12.83;;;11.57;;
26040;SDS011;13816;53.628;9.950;2022-08-19T18:32:31;12.97;;;11.33;;
26040;SDS011;13816;53.628;9.950;2022-08-19T18:35:03;12.30;;;11.10;;
26040;SDS011;13816;53.628;9.950;2022-08-19T18:37:30;14.00;;;12.17;;
26040;SDS011;13816;53.628;9.950;2022-08-19T18:44:16;13.90;;;11.50;;
26040;SDS011;13816;53.628;9.950;2022-08-19T19:07:47;15.17;;;13.70;;
26040;SDS011;13816;53.628;9.950;2022-08-19T19:26:58;17.33;;;15.53;;
26040;SDS011;13816;53.628;9.950;2022-08-19T19:36:23;19.00;;;17.20;;
26040;SDS011;13816;53.628;9.950;2022-08-19T19:52:50;18.13;;;14.60;;
26040;SDS011;13816;53.628;9.950;2022-08-19T20:22:43;29.57;;;22.13;;